createdAt,value
2019-01-27T00:01:28.334Z,97062.67
2019-01-27T00:06:34.410Z,97070.85
2019-01-27T00:11:40.248Z,97086.81
2019-01-27T00:16:47.282Z,97093.95
2019-01-27T00:21:52.751Z,97103.09
2019-01-27T00:26:58.653Z,97093.80
2019-01-27T00:32:02.912Z,97106.77
2019-01-27T00:37:08.834Z,97111.89
2019-01-27T00:42:13.472Z,97110.27
2019-01-27T00:47:18.161Z,97115.62
2019-01-27T00:52:25.906Z,97109.94
2019-01-27T00:57:30.902Z,97117.56
2019-01-27T01:02:37.984Z,97129.20
2019-01-27T01:07:46.660Z,97119.25
2019-01-27T01:12:52.873Z,97119.67
2019-01-27T01:17:58.475Z,97103.41
2019-01-27T01:23:03.142Z,97114.86
2019-01-27T01:28:08.281Z,97132.20
2019-01-27T01:33:12.614Z,97109.20
2019-01-27T01:38:20.355Z,97119.36
2019-01-27T01:43:25.219Z,97106.22
2019-01-27T01:48:33.363Z,97113.33
2019-01-27T01:53:39.159Z,97113.05
2019-01-27T01:58:44.664Z,97137.41
2019-01-27T02:03:50.388Z,97113.11
2019-01-27T02:08:56.082Z,97152.45
2019-01-27T02:14:03.029Z,97128.90
2019-01-27T02:19:07.727Z,97135.18
2019-01-27T02:24:12.940Z,97140.69
2019-01-27T02:29:20.366Z,97143.02
2019-01-27T02:34:26.450Z,97154.65
2019-01-27T02:39:32.679Z,97144.81
2019-01-27T02:44:37.113Z,97150.18
2019-01-27T02:49:42.494Z,97164.81
2019-01-27T02:54:47.120Z,97135.53
2019-01-27T02:59:52.834Z,97143.90
2019-01-27T03:04:58.853Z,97158.05
2019-01-27T03:10:05.027Z,97156.61
2019-01-27T03:15:10.534Z,97179.66
2019-01-27T03:20:15.182Z,97172.69
2019-01-27T03:25:19.488Z,97174.10
2019-01-27T03:30:26.434Z,97172.61
2019-01-27T03:35:32.217Z,97175.30
2019-01-27T03:40:38.848Z,97188.35
2019-01-27T03:45:43.844Z,97185.64
2019-01-27T03:50:48.404Z,97163.48
2019-01-27T03:55:53.765Z,97161.63
2019-01-27T04:00:58.155Z,97184.15
2019-01-27T04:06:03.044Z,97186.29
2019-01-27T04:11:07.939Z,97183.44
2019-01-27T04:16:13.390Z,97201.30
2019-01-27T04:21:17.954Z,97180.76
2019-01-27T04:26:22.018Z,97188.00
2019-01-27T04:31:26.432Z,97202.33
2019-01-27T04:36:31.329Z,97200.14
2019-01-27T04:41:38.291Z,97208.89
2019-01-27T04:46:42.845Z,97215.53
2019-01-27T04:51:47.169Z,97237.34
2019-01-27T04:56:53.567Z,97236.65
2019-01-27T05:01:59.425Z,97238.57
2019-01-27T05:07:04.067Z,97240.38
2019-01-27T05:12:08.394Z,97244.05
2019-01-27T05:17:13.797Z,97252.67
2019-01-27T05:22:20.703Z,97260.53
2019-01-27T05:27:25.719Z,97270.70
2019-01-27T05:32:50.348Z,97285.25
2019-01-27T05:37:55.278Z,97284.70
2019-01-27T05:43:00.630Z,97283.42
2019-01-27T05:48:04.834Z,97278.12
2019-01-27T05:53:10.866Z,97279.36
2019-01-27T05:58:15.068Z,97279.53
2019-01-27T06:03:19.944Z,97291.88
2019-01-27T06:08:23.997Z,97294.17
2019-01-27T06:13:33.330Z,97301.13
2019-01-27T06:18:38.619Z,97315.80
2019-01-27T06:23:43.724Z,97308.66
2019-01-27T06:28:48.458Z,97309.71
2019-01-27T06:34:06.313Z,97317.41
2019-01-27T06:39:10.613Z,97329.22
2019-01-27T06:44:15.224Z,97324.05
2019-01-27T06:49:19.709Z,97328.88
2019-01-27T06:54:23.970Z,97331.20
2019-01-27T06:59:58.103Z,97329.60
2019-01-27T07:05:15.452Z,97329.41
2019-01-27T07:10:42.865Z,97331.02
2019-01-27T07:16:12.542Z,97335.64
2019-01-27T07:21:27.124Z,97336.50
2019-01-27T07:26:53.505Z,97340.06
2019-01-27T07:32:20.587Z,97343.27
2019-01-27T07:37:36.370Z,97350.77
2019-01-27T07:42:50.036Z,97354.23
2019-01-27T07:48:23.218Z,97344.79
2019-01-27T07:53:58.740Z,97362.75
2019-01-27T07:59:33.608Z,97369.55
2019-01-27T08:05:03.113Z,97360.68
2019-01-27T08:10:36.976Z,97375.33
2019-01-27T08:16:06.784Z,97376.72
2019-01-27T08:21:40.105Z,97379.70
2019-01-27T08:26:55.613Z,97383.06
2019-01-27T08:32:06.974Z,97383.16
2019-01-27T08:37:25.297Z,97382.89
2019-01-27T08:42:48.805Z,97383.23
2019-01-27T08:47:52.864Z,97401.23
2019-01-27T08:52:57.238Z,97402.08
2019-01-27T08:58:01.438Z,97407.58
2019-01-27T09:03:16.908Z,97412.39
2019-01-27T09:08:50.098Z,97412.69
2019-01-27T09:14:10.911Z,97413.39
2019-01-27T09:19:33.902Z,97424.08
2019-01-27T09:24:49.223Z,97432.20
2019-01-27T09:30:13.307Z,97419.82
2019-01-27T09:35:27.821Z,97424.87
2019-01-27T09:40:52.066Z,97428.77
2019-01-27T09:46:22.365Z,97430.25
2019-01-27T09:51:51.436Z,97428.69
2019-01-27T09:57:18.054Z,97418.00
2019-01-27T10:02:47.332Z,97418.42
2019-01-27T10:08:13.344Z,97403.66
2019-01-27T10:13:30.908Z,97397.13
2019-01-27T10:19:00.835Z,97407.98
2019-01-27T10:24:23.378Z,97405.67
2019-01-27T10:30:02.842Z,97403.38
2019-01-27T10:35:21.506Z,97401.68
2019-01-27T10:40:54.778Z,97393.80
2019-01-27T10:46:27.394Z,97394.42
2019-01-27T10:51:44.126Z,97395.66
2019-01-27T10:57:03.441Z,97388.90
2019-01-27T11:02:36.716Z,97392.48
2019-01-27T11:07:55.399Z,97389.73
2019-01-27T11:13:31.512Z,97389.45
2019-01-27T11:18:58.423Z,97383.93
2019-01-27T11:24:23.080Z,97382.09
2019-01-27T11:29:47.570Z,97377.55
2019-01-27T11:35:26.179Z,97375.88
2019-01-27T11:41:08.839Z,97371.07
2019-01-27T11:46:31.207Z,97369.69
2019-01-27T11:51:49.061Z,97370.77
2019-01-27T11:56:54.171Z,97364.21
2019-01-27T12:01:59.437Z,97367.49
2019-01-27T12:07:07.133Z,97369.31
2019-01-27T12:12:15.578Z,97370.27
2019-01-27T12:17:22.218Z,97370.81
2019-01-27T12:22:28.165Z,97376.06
2019-01-27T12:27:33.780Z,97369.69
2019-01-27T12:32:49.016Z,97375.48
2019-01-27T12:37:54.623Z,97378.58
2019-01-27T12:43:02.262Z,97385.83
2019-01-27T12:48:06.559Z,97382.27
2019-01-27T12:53:12.628Z,97387.72
2019-01-27T12:58:17.113Z,97387.72
2019-01-27T13:03:23.945Z,97391.91
2019-01-27T13:08:28.225Z,97391.31
2019-01-27T13:13:32.420Z,97383.89
2019-01-27T13:18:36.461Z,97391.12
2019-01-27T13:23:40.668Z,97395.27
2019-01-27T13:28:44.807Z,97391.11
2019-01-27T13:33:50.377Z,97392.72
2019-01-27T13:38:54.416Z,97403.36
2019-01-27T13:43:58.501Z,97394.80
2019-01-27T13:49:02.682Z,97390.66
2019-01-27T13:54:06.654Z,97392.74
2019-01-27T14:01:26.552Z,97381.75
2019-01-27T14:06:49.045Z,97377.56
2019-01-27T14:12:12.919Z,97370.52
2019-01-27T14:17:36.648Z,97374.73
2019-01-27T14:24:42.565Z,97373.99
2019-01-27T14:30:07.035Z,97377.78
2019-01-27T14:35:29.515Z,97383.75
2019-01-27T14:40:34.380Z,97389.91
2019-01-27T14:45:39.819Z,97380.83
2019-01-27T14:50:46.298Z,97390.80
2019-01-27T14:55:50.306Z,97387.91
2019-01-27T15:00:54.543Z,97385.96
2019-01-27T15:05:59.461Z,97387.34
2019-01-27T15:11:21.895Z,97383.61
2019-01-27T15:16:26.275Z,97393.00
2019-01-27T15:21:30.507Z,97393.19
2019-01-27T15:26:35.509Z,97393.67
2019-01-27T15:31:39.895Z,97388.80
2019-01-27T15:41:40.428Z,97395.50
2019-01-27T15:46:45.834Z,97401.00
2019-01-27T15:51:49.583Z,97413.22
2019-01-27T15:56:53.642Z,97413.02
2019-01-27T16:01:57.408Z,97420.94
2019-01-27T16:07:01.242Z,97427.00
2019-01-27T16:12:05.640Z,97435.68
2019-01-27T16:17:09.613Z,97439.02
2019-01-27T16:22:14.306Z,97445.03
2019-01-27T16:27:18.075Z,97442.77
2019-01-27T16:32:34.965Z,97444.77
2019-01-27T16:37:40.093Z,97450.39
2019-01-27T16:42:44.409Z,97458.03
2019-01-27T16:47:49.354Z,97459.95
2019-01-27T16:53:03.983Z,97458.03
2019-01-27T16:58:07.881Z,97466.82
2019-01-27T17:03:11.662Z,97470.84
2019-01-27T17:08:17.823Z,97469.03
2019-01-27T17:13:22.974Z,97466.42
2019-01-27T17:18:29.271Z,97468.69
2019-01-27T17:23:34.110Z,97470.84
2019-01-27T17:28:43.023Z,97472.25
2019-01-27T17:33:56.000Z,97481.84
2019-01-27T17:39:09.466Z,97476.16
2019-01-27T17:44:15.598Z,97472.95
2019-01-27T17:49:20.246Z,97472.70
2019-01-27T17:54:26.789Z,97466.44
2019-01-27T17:59:40.011Z,97466.70
2019-01-27T18:04:53.643Z,97479.76
2019-01-27T18:10:31.369Z,97472.38
2019-01-27T18:15:44.008Z,97473.43
2019-01-27T18:20:52.933Z,97485.23
2019-01-27T18:25:58.717Z,97486.67
2019-01-27T18:31:03.131Z,97487.69
2019-01-27T18:36:09.680Z,97483.45
2019-01-27T18:41:17.243Z,97480.52
2019-01-27T18:46:22.085Z,97486.52
2019-01-27T18:51:29.815Z,97485.02
2019-01-27T18:57:05.648Z,97490.91
2019-01-27T19:02:32.212Z,97492.78
2019-01-27T19:08:01.165Z,97494.04
2019-01-27T19:13:32.079Z,97486.98
2019-01-27T19:19:03.316Z,97486.86
2019-01-27T19:24:33.492Z,97476.77
2019-01-27T19:30:02.625Z,97485.86
2019-01-27T19:35:21.806Z,97482.66
2019-01-27T19:40:45.821Z,97484.03
2019-01-27T19:46:16.529Z,97488.69
2019-01-27T19:51:43.668Z,97482.90
2019-01-27T19:57:22.192Z,97477.27
2019-01-27T20:02:36.708Z,97481.34
2019-01-27T20:08:00.764Z,97491.37
2019-01-27T20:13:17.041Z,97486.83
2019-01-27T20:18:39.229Z,97485.55
2019-01-27T20:23:55.853Z,97481.59
2019-01-27T20:29:31.620Z,97481.80
2019-01-27T20:35:10.872Z,97480.30
2019-01-27T20:40:35.938Z,97472.13
2019-01-27T20:45:59.064Z,97469.52
2019-01-27T20:51:34.786Z,97469.98
2019-01-27T20:56:45.485Z,97467.31
2019-01-27T21:02:24.930Z,97469.89
2019-01-27T21:08:00.854Z,97468.32
2019-01-27T21:13:11.218Z,97475.77
2019-01-27T21:18:26.859Z,97472.98
2019-01-27T21:23:31.435Z,97467.12
2019-01-27T21:28:36.469Z,97462.19
2019-01-27T21:33:40.533Z,97470.92
2019-01-27T21:38:45.721Z,97467.95
2019-01-27T21:43:50.866Z,97462.59
2019-01-27T21:48:58.002Z,97469.77
2019-01-27T21:54:03.474Z,97468.30
2019-01-27T21:59:07.795Z,97476.11
2019-01-27T22:04:12.543Z,97468.56
2019-01-27T22:09:18.122Z,97477.36
2019-01-27T22:14:22.138Z,97462.99
2019-01-27T22:19:26.703Z,97462.47
2019-01-27T22:24:32.579Z,97467.28
2019-01-27T22:29:37.783Z,97464.31
2019-01-27T22:34:45.521Z,97453.05
2019-01-27T22:39:50.543Z,97455.75
2019-01-27T22:44:56.050Z,97453.42
2019-01-27T22:50:01.633Z,97455.60
2019-01-27T22:55:07.103Z,97451.09
2019-01-27T23:00:21.503Z,97458.70
2019-01-27T23:05:35.782Z,97453.41
2019-01-27T23:10:40.246Z,97452.17
2019-01-27T23:15:44.725Z,97453.77
2019-01-27T23:20:48.575Z,97444.61
2019-01-27T23:25:53.678Z,97447.73
2019-01-27T23:31:01.939Z,97443.77
2019-01-27T23:36:06.683Z,97444.36
2019-01-27T23:41:11.247Z,97442.77
2019-01-27T23:46:16.291Z,97435.90
2019-01-27T23:51:22.294Z,97436.00
2019-01-27T23:56:28.300Z,97431.83
